aviador You're here:

YBRM Decoded Metar

BROOME in AUSTRALIA
Report Time2017-11-24 09:00:00
UTC Time2017-11-24 09:07:26
Flight Rules vfr VFR
Wind280° at 11 kt
W.Decomp.*RWY 28: 11.0 kt HW 0.4 kt LCW
W.Rank280° ranks 2
Current wind is above 280° avg. (8.0)
Visibility9999 m
Phenomena:N/A
Clouds:N/A
Expected CloudBase > 2,400 ft AGL from Temp-Dew spread
CeilingNone
Temp31°C (ISA +16)
Dew Point25°C (70% RH)
Heat Index37.6°C
QNH1005 hPa
Density Alt2,582 ft
Elevation56 ft
Report Wrong Elevation
Raw Report
METAR YBRM 240900Z AUTO 28011KT 9999 // NCD 31/25 Q1005=

Extra information for YBRM:More info

Metar Taf Metar & Taf Last 4 Metars F.Rules Stats Wind Profile Meteogram Temp Stats Airport Information Weather charts Add Link Nearby VenuesMetar ALERT Operation Metar Decoded Social comments